METAR AND TAF INFORMATION
METAR FOR EHKD
ADDS - METARS form results

(0617 UTC 04 December 2022)
Data provider http://aviationweather.gov/metar/data/
 
METAR text: EHKD 040555Z AUTO 09014KT 8000 HZ OVC011 01/M02 Q1019 GRN NOSIG
Conditions at: EHKD (DE KOOY (NAVY) , NL) observed 0555 UTC 04 December 2022
Temperature: 1.0°C (34°F)
Dewpoint: -2.0°C (28°F) [RH = 80%]
Pressure (altimeter): 30.09 inches Hg (1019.0 mb)
Winds: from the E (90 degrees) at 16 MPH (14 knots; 7.2 m/s)
Visibility: 5 miles ( 8 km)
Ceiling: 1100 feet AGL
Clouds: overcast cloud deck at 1100 feet AGL
Weather: HZ  (haze)

METAR text: EHKD 040538Z AUTO 09013KT 060V120 8000 HZ BKN011 OVC013 01/M02 Q1019 GRN NOSIG
Conditions at: EHKD (DE KOOY (NAVY) , NL) observed 0538 UTC 04 December 2022
Temperature: 1.0°C (34°F)
Dewpoint: -2.0°C (28°F) [RH = 80%]
Pressure (altimeter): 30.09 inches Hg (1019.0 mb)
Winds: from the E (90 degrees) at 15 MPH (13 knots; 6.7 m/s)
Visibility: 5 miles ( 8 km)
Ceiling: 1100 feet AGL
Clouds: broken clouds at 1100 feet AGL
overcast cloud deck at 1300 feet AGL
Weather: HZ  (haze)

METAR text: EHKD 040525Z AUTO 08013KT 050V110 8000 HZ BKN011 BKN015 OVC033 01/M02 Q1019 GRN
Conditions at: EHKD (DE KOOY (NAVY) , NL) observed 0525 UTC 04 December 2022
Temperature: 1.0°C (34°F)
Dewpoint: -2.0°C (28°F) [RH = 80%]
Pressure (altimeter): 30.09 inches Hg (1019.0 mb)
Winds: from the E (80 degrees) at 15 MPH (13 knots; 6.7 m/s)
Visibility: 5 miles ( 8 km)
Ceiling: 1100 feet AGL
Clouds: broken clouds at 1100 feet AGL
broken clouds at 1500 feet AGL
overcast cloud deck at 3300 feet AGL
Weather: HZ  (haze)

Forecast for: EHKD (DE KOOY (NAVY) , NL)
Text: TAF EHKD 040540Z 0406/0418 08014KT 8000 BKN011 OVC023
Forecast period: 0600 to 1800 UTC 04 December 2022
Forecast type: FROM: standard forecast or significant change
Winds: from the E (80 degrees) at 16 MPH (14 knots; 7.2 m/s)
Visibility: 5 miles (8 km)
Ceiling: 1100 feet AGL
Clouds: broken clouds at 1100 feet AGL
overcast cloud deck at 2300 feet AGL
Weather: no significant weather forecast for this period
Text: PROB40
Forecast period: 1200 to 1800 UTC 04 December 2022
Forecast type: TEMPORARY: The following changes expected for less than half the time period
Visibility: 6 or more miles (10+ km)
Ceiling: 1600 feet AGL
Clouds: few clouds at 1200 feet AGL
broken clouds at 1600 feet AGL
Weather: NSW  (no significant weather)

 AIRPORT MAP

 RUNWAY INFORMATION
Runway 04 Runway length 4183 ft Runway width 98 ft
Runway elevation 3 ft Runway displaced threshold 804 ft Runway heading 34
Runway 22 Runway length 4183 ft Runway width 98 ft
Runway elevation 2 ft Runway displaced threshold 804 ft Runway heading 214

 AIRPORT FREQUENCIES
Type APP Name APP Frequency 119.1 MHZ
Type FSS Name FINAL Frequency 123.3 MHZ
Type GND Name GND Frequency 121.725 MHZ
Type TWR Name TWR Frequency 120.125 MHZ

 AIRPORT NEAR NAVIGATION AIDS
Type VOR-DME Name Den Helder Frequency 115550 KHZ